createdAt,value
2022-09-23T00:01:07.521Z,12.40
2022-09-23T00:03:53.992Z,10.43
2022-09-23T00:06:40.881Z,16.10
2022-09-23T00:09:27.269Z,15.70
2022-09-23T00:12:13.635Z,15.63
2022-09-23T00:14:59.947Z,13.35
2022-09-23T00:17:46.536Z,14.60
2022-09-23T00:20:36.658Z,17.37
2022-09-23T00:23:22.900Z,14.48
2022-09-23T00:26:15.887Z,10.55
2022-09-23T00:29:01.850Z,11.85
2022-09-23T00:31:48.113Z,10.00
2022-09-23T00:34:34.049Z,9.75
2022-09-23T00:37:20.990Z,10.75
2022-09-23T00:40:08.733Z,8.98
2022-09-23T00:42:55.179Z,8.23
2022-09-23T00:45:47.068Z,10.55
2022-09-23T00:48:33.398Z,11.12
2022-09-23T00:51:22.503Z,8.23
2022-09-23T00:54:09.700Z,11.05
2022-09-23T00:56:56.557Z,10.27
2022-09-23T00:59:43.598Z,11.12
2022-09-23T01:02:29.942Z,8.95
2022-09-23T01:05:17.207Z,8.93
2022-09-23T01:08:04.056Z,12.70
2022-09-23T01:11:03.434Z,8.60
2022-09-23T01:14:11.121Z,10.35
2022-09-23T01:17:33.314Z,8.65
2022-09-23T01:20:37.261Z,8.18
2022-09-23T01:23:56.453Z,9.48
2022-09-23T01:26:48.180Z,11.35
2022-09-23T01:30:23.679Z,9.02
2022-09-23T01:33:37.323Z,8.40
2022-09-23T01:36:40.177Z,10.88
2022-09-23T01:39:38.779Z,8.20
2022-09-23T01:42:37.384Z,7.35
2022-09-23T01:45:44.727Z,10.13
2022-09-23T01:49:00.791Z,8.73
2022-09-23T01:51:51.390Z,7.20
2022-09-23T01:54:45.438Z,8.43
2022-09-23T01:57:40.533Z,10.15
2022-09-23T02:00:30.300Z,9.50
2022-09-23T02:03:26.859Z,10.00
2022-09-23T02:06:21.790Z,10.35
2022-09-23T02:09:12.708Z,10.43
2022-09-23T02:12:05.699Z,11.32
2022-09-23T02:15:04.163Z,10.30
2022-09-23T02:17:52.609Z,10.20
2022-09-23T02:20:42.059Z,10.15
2022-09-23T02:23:32.514Z,8.63
2022-09-23T02:26:25.428Z,9.68
2022-09-23T02:29:24.848Z,10.60
2022-09-23T02:32:30.783Z,8.60
2022-09-23T02:35:33.240Z,9.48
2022-09-23T02:38:40.478Z,10.13
2022-09-23T02:41:30.486Z,12.37
2022-09-23T02:44:18.697Z,7.60
2022-09-23T02:47:05.169Z,8.68
2022-09-23T02:49:52.032Z,8.75
2022-09-23T02:52:38.750Z,9.27
2022-09-23T02:55:31.287Z,8.75
2022-09-23T02:58:17.669Z,7.62
2022-09-23T03:01:07.366Z,9.32
2022-09-23T03:03:59.759Z,9.18
2022-09-23T03:07:01.583Z,11.15
2022-09-23T03:09:51.667Z,10.60
2022-09-23T03:12:51.522Z,10.00
2022-09-23T03:16:36.327Z,9.13
2022-09-23T03:19:32.937Z,13.38
2022-09-23T03:22:30.374Z,9.07
2022-09-23T03:25:19.155Z,11.43
2022-09-23T03:28:07.732Z,11.88
2022-09-23T03:30:54.475Z,11.48
2022-09-23T03:33:48.244Z,13.23
2022-09-23T03:36:51.550Z,10.48
2022-09-23T03:39:42.053Z,11.85
2022-09-23T03:42:30.914Z,10.23
2022-09-23T03:45:23.243Z,11.63
2022-09-23T03:48:09.665Z,8.98
2022-09-23T03:50:56.247Z,8.48
2022-09-23T03:53:42.683Z,8.20
2022-09-23T03:56:28.813Z,9.07
2022-09-23T03:59:16.121Z,9.23
2022-09-23T04:02:02.737Z,11.18
2022-09-23T04:04:49.084Z,12.68
2022-09-23T04:07:35.082Z,13.55
2022-09-23T04:10:21.203Z,11.15
2022-09-23T04:13:07.094Z,12.82
2022-09-23T04:15:53.453Z,10.32
2022-09-23T04:18:39.191Z,14.18
2022-09-23T04:21:25.738Z,11.45
2022-09-23T04:24:12.264Z,11.40
2022-09-23T04:26:59.278Z,12.48
2022-09-23T04:29:45.509Z,10.30
2022-09-23T04:32:31.847Z,9.65
2022-09-23T04:35:17.649Z,11.82
2022-09-23T04:38:04.473Z,12.00
2022-09-23T04:40:50.772Z,11.95
2022-09-23T04:43:37.231Z,9.07
2022-09-23T04:46:23.703Z,10.40
2022-09-23T04:49:10.128Z,12.27
2022-09-23T04:51:56.431Z,11.57
2022-09-23T04:54:42.982Z,10.57
2022-09-23T04:57:29.868Z,13.82
2022-09-23T05:00:16.563Z,11.55
2022-09-23T05:03:02.613Z,16.37
2022-09-23T05:05:48.962Z,14.05
2022-09-23T05:08:35.799Z,12.15
2022-09-23T05:11:23.516Z,13.45
2022-09-23T05:14:09.993Z,14.57
2022-09-23T05:16:56.315Z,12.82
2022-09-23T05:19:42.547Z,20.40
2022-09-23T05:22:30.302Z,16.98
2022-09-23T05:25:16.684Z,15.73
2022-09-23T05:28:03.074Z,17.15
2022-09-23T05:30:48.942Z,16.58
2022-09-23T05:33:36.475Z,16.85
2022-09-23T05:36:23.523Z,13.68
2022-09-23T05:39:10.065Z,12.82
2022-09-23T05:41:56.708Z,14.48
2022-09-23T05:44:43.233Z,16.35
2022-09-23T05:47:29.387Z,16.37
2022-09-23T05:50:16.210Z,14.95
2022-09-23T05:53:02.771Z,12.48
2022-09-23T05:55:48.963Z,14.87
2022-09-23T05:58:35.550Z,14.75
2022-09-23T06:01:27.981Z,14.13
2022-09-23T06:04:14.469Z,12.60
2022-09-23T06:07:03.457Z,18.62
2022-09-23T06:09:50.598Z,16.37
2022-09-23T06:12:36.973Z,12.65
2022-09-23T06:15:23.284Z,15.32
2022-09-23T06:18:11.389Z,17.92
2022-09-23T06:21:01.543Z,12.93
2022-09-23T06:23:47.914Z,12.07
2022-09-23T06:26:35.622Z,13.30
2022-09-23T06:29:21.975Z,14.07
2022-09-23T06:32:08.453Z,12.93
2022-09-23T06:34:54.762Z,10.15
2022-09-23T06:37:41.097Z,11.32
2022-09-23T06:40:27.119Z,11.73
2022-09-23T06:43:13.238Z,12.45
2022-09-23T06:46:00.673Z,12.32
2022-09-23T06:48:47.291Z,9.85
2022-09-23T06:51:33.818Z,11.90
2022-09-23T06:54:20.387Z,10.55
2022-09-23T06:57:06.632Z,14.48
2022-09-23T06:59:52.897Z,13.62
2022-09-23T07:02:42.246Z,10.27
2022-09-23T07:05:28.686Z,10.07
2022-09-23T07:08:15.142Z,8.75
2022-09-23T07:11:04.575Z,9.35
2022-09-23T07:13:50.957Z,7.90
2022-09-23T07:16:37.499Z,7.60
2022-09-23T07:19:24.402Z,7.97
2022-09-23T07:22:10.818Z,7.90
2022-09-23T07:24:57.200Z,8.25
2022-09-23T07:27:43.317Z,7.95
2022-09-23T07:30:29.721Z,8.60
2022-09-23T07:33:29.284Z,7.28
2022-09-23T07:36:19.005Z,6.77
2022-09-23T07:39:05.880Z,8.05
2022-09-23T07:41:52.337Z,8.18
2022-09-23T07:44:39.004Z,10.82
2022-09-23T07:47:25.114Z,10.73
2022-09-23T07:50:11.677Z,8.25
2022-09-23T07:52:57.638Z,10.52
2022-09-23T07:55:52.098Z,8.30
2022-09-23T07:58:38.064Z,9.05
2022-09-23T08:01:24.417Z,7.20
2022-09-23T08:04:17.130Z,6.82
2022-09-23T08:07:04.781Z,7.70
2022-09-23T09:53:38.631Z,8.70
2022-09-23T10:02:34.157Z,8.63
2022-09-23T10:05:28.504Z,8.80
2022-09-23T10:08:26.052Z,9.05
2022-09-23T10:11:19.085Z,10.07
2022-09-23T10:14:18.375Z,8.27
2022-09-23T10:17:06.772Z,7.05
2022-09-23T10:20:00.995Z,7.25
2022-09-23T10:26:04.281Z,6.68
2022-09-23T10:28:52.784Z,7.07
2022-09-23T10:31:39.387Z,7.05
2022-09-23T10:34:27.446Z,7.68
2022-09-23T10:37:21.506Z,6.45
2022-09-23T10:40:49.323Z,7.62
2022-09-23T10:44:16.902Z,8.55
2022-09-23T10:47:06.351Z,7.18
2022-09-23T10:50:04.224Z,8.50
2022-09-23T10:53:15.481Z,7.35
2022-09-23T10:56:36.318Z,7.05
2022-09-23T10:59:32.871Z,6.45
2022-09-23T11:02:40.586Z,6.55
2022-09-23T11:05:32.828Z,6.12
2022-09-23T11:08:27.941Z,6.10
2022-09-23T11:11:43.880Z,6.70
2022-09-23T11:14:55.196Z,7.07
2022-09-23T11:17:47.871Z,7.45
2022-09-23T11:20:45.538Z,6.62
2022-09-23T11:24:28.046Z,5.85
2022-09-23T11:27:52.520Z,6.90
2022-09-23T11:31:11.474Z,6.72
2022-09-23T11:34:40.584Z,6.05
2022-09-23T11:37:35.326Z,5.83
2022-09-23T11:40:31.358Z,6.07
2022-09-23T11:43:25.448Z,6.78
2022-09-23T11:46:23.951Z,6.32
2022-09-23T11:49:28.165Z,7.78
2022-09-23T11:52:19.745Z,7.20
2022-09-23T11:55:22.792Z,6.12
2022-09-23T11:58:25.078Z,6.18
2022-09-23T12:01:35.471Z,7.43
2022-09-23T12:04:31.279Z,6.93
2022-09-23T12:07:20.851Z,8.73
2022-09-23T12:10:08.808Z,6.72
2022-09-23T12:13:32.802Z,7.18
2022-09-23T12:16:53.828Z,6.37
2022-09-23T12:20:05.771Z,5.90
2022-09-23T12:23:04.632Z,5.62
2022-09-23T12:26:04.750Z,6.15
2022-09-23T12:28:54.946Z,5.70
2022-09-23T12:31:43.081Z,6.10
2022-09-23T12:34:41.409Z,6.12
2022-09-23T12:37:38.069Z,6.07
2022-09-23T12:40:45.132Z,5.47
2022-09-23T12:43:37.201Z,6.72
2022-09-23T12:46:25.766Z,10.52
2022-09-23T12:49:28.943Z,5.87
2022-09-23T12:52:18.648Z,7.82
2022-09-23T12:55:34.175Z,5.18
2022-09-23T12:58:58.190Z,6.70
2022-09-23T13:01:44.769Z,6.55
2022-09-23T13:04:53.097Z,5.62
2022-09-23T13:07:44.492Z,6.57
2022-09-23T13:10:39.877Z,4.93
2022-09-23T13:13:31.863Z,5.35
2022-09-23T13:16:34.556Z,3.72
2022-09-23T13:19:26.964Z,3.17
2022-09-23T13:22:13.610Z,3.30
2022-09-23T13:25:01.675Z,2.97
2022-09-23T13:27:50.129Z,3.58
2022-09-23T13:30:36.171Z,2.30
2022-09-23T13:33:27.512Z,3.00
2022-09-23T13:36:16.125Z,3.05
2022-09-23T13:39:21.683Z,3.27
2022-09-23T13:42:11.462Z,2.45
2022-09-23T13:44:59.100Z,4.12
2022-09-23T13:47:47.688Z,4.10
2022-09-23T13:50:36.603Z,3.20
2022-09-23T13:53:30.529Z,3.30
2022-09-23T13:56:17.225Z,3.83
2022-09-23T13:59:21.626Z,4.15
2022-09-23T14:02:13.782Z,2.45
2022-09-23T14:05:12.575Z,2.80
2022-09-23T14:07:59.663Z,2.45
2022-09-23T14:10:46.915Z,2.70
2022-09-23T14:13:41.865Z,2.40
2022-09-23T14:16:28.388Z,2.63
2022-09-23T14:19:18.336Z,3.05
2022-09-23T14:22:09.259Z,3.90
2022-09-23T14:24:59.496Z,12.07
2022-09-23T14:27:47.205Z,4.40
2022-09-23T14:30:33.497Z,4.50
2022-09-23T14:33:26.628Z,6.30
2022-09-23T14:36:34.879Z,4.75
2022-09-23T14:39:21.566Z,4.22
2022-09-23T14:42:08.074Z,4.03
2022-09-23T14:44:54.596Z,4.30
2022-09-23T14:47:44.449Z,5.03
2022-09-23T14:50:37.000Z,6.45
2022-09-23T14:53:23.043Z,5.80
2022-09-23T14:56:12.189Z,4.22
2022-09-23T14:59:00.092Z,6.23
2022-09-23T15:01:46.756Z,5.23
2022-09-23T15:04:32.903Z,3.75
2022-09-23T15:07:20.722Z,4.47
2022-09-23T15:10:09.815Z,5.28
2022-09-23T15:13:12.897Z,30.35
2022-09-23T15:16:01.830Z,17.15
2022-09-23T15:18:57.781Z,10.27
2022-09-23T15:21:45.057Z,15.30
2022-09-23T15:24:43.200Z,24.48
2022-09-23T15:27:31.703Z,27.48
2022-09-23T15:30:19.919Z,17.67
2022-09-23T15:33:06.481Z,29.08
2022-09-23T15:35:52.962Z,21.05
2022-09-23T15:38:43.002Z,22.80
2022-09-23T15:41:30.053Z,13.00
2022-09-23T15:44:18.736Z,6.90
2022-09-23T15:47:05.354Z,6.60
2022-09-23T15:49:51.641Z,6.43
2022-09-23T15:52:38.045Z,7.25
2022-09-23T15:55:24.231Z,10.65
2022-09-23T16:00:57.422Z,9.05
2022-09-23T16:06:29.992Z,11.88
2022-09-23T16:09:16.375Z,6.53
2022-09-23T16:17:36.656Z,9.68
2022-09-23T16:23:37.697Z,10.70
2022-09-23T18:01:49.419Z,27.33
2022-09-23T18:10:08.677Z,24.37
2022-09-23T18:12:55.047Z,20.90
2022-09-23T18:15:41.503Z,17.52
2022-09-23T18:18:27.813Z,19.60
2022-09-23T18:21:14.071Z,22.17
2022-09-23T18:24:21.738Z,23.33
2022-09-23T18:27:08.395Z,23.85
2022-09-23T18:29:54.308Z,22.48
2022-09-23T18:32:41.813Z,22.45
2022-09-23T18:35:28.549Z,19.23
2022-09-23T18:38:15.521Z,19.15
2022-09-23T18:41:02.045Z,17.58
2022-09-23T18:43:49.012Z,20.48
2022-09-23T18:49:40.523Z,22.83
2022-09-23T18:52:27.119Z,25.60
2022-09-23T18:55:13.288Z,28.02
2022-09-23T18:57:59.758Z,23.62
2022-09-23T19:00:47.994Z,24.73
2022-09-23T19:03:35.650Z,24.12
2022-09-23T19:06:22.007Z,17.87
2022-09-23T19:09:08.940Z,13.13
2022-09-23T19:11:55.533Z,13.80
2022-09-23T19:14:44.700Z,13.23
2022-09-23T19:17:31.268Z,17.40
2022-09-23T19:20:17.816Z,18.10
2022-09-23T19:23:04.132Z,17.73
2022-09-23T19:25:50.593Z,17.65
2022-09-23T19:28:37.505Z,17.42
2022-09-23T19:31:25.500Z,15.93
2022-09-23T19:34:17.785Z,14.93
2022-09-23T19:37:04.510Z,14.55
2022-09-23T19:39:50.998Z,19.98
2022-09-23T19:42:38.172Z,18.85
2022-09-23T19:45:25.147Z,18.17
2022-09-23T19:48:11.753Z,16.00
2022-09-23T19:50:58.288Z,13.07
2022-09-23T19:53:45.558Z,13.52
2022-09-23T19:56:32.740Z,14.93
2022-09-23T19:59:19.476Z,12.02
2022-09-23T20:02:06.050Z,10.60
2022-09-23T20:04:52.897Z,15.27
2022-09-23T20:07:41.532Z,12.98
2022-09-23T20:10:27.736Z,15.25
2022-09-23T20:13:15.004Z,14.45
2022-09-23T20:16:01.553Z,12.10
2022-09-23T20:18:52.029Z,9.73
2022-09-23T20:21:38.394Z,7.27
2022-09-23T20:24:24.713Z,8.43
2022-09-23T20:27:11.215Z,9.85
2022-09-23T20:30:00.806Z,10.90
2022-09-23T20:32:49.991Z,10.18
2022-09-23T20:35:36.368Z,11.90
2022-09-23T20:38:22.872Z,10.30
2022-09-23T20:41:09.415Z,10.40
2022-09-23T20:43:58.845Z,10.38
2022-09-23T20:46:48.849Z,9.48
2022-09-23T20:49:36.461Z,10.52
2022-09-23T20:52:22.896Z,9.50
2022-09-23T20:55:09.707Z,6.75
2022-09-23T20:57:56.140Z,7.40
2022-09-23T21:00:44.486Z,7.05
2022-09-23T21:03:34.892Z,8.70
2022-09-23T21:06:25.143Z,9.15
2022-09-23T21:09:11.349Z,9.32
2022-09-23T21:11:57.878Z,8.45
2022-09-23T21:14:44.113Z,6.78
2022-09-23T21:17:30.525Z,6.70
2022-09-23T21:20:16.926Z,9.45
2022-09-23T21:23:03.247Z,8.82
2022-09-23T21:25:49.220Z,8.35
2022-09-23T21:28:42.995Z,10.05
2022-09-23T21:31:34.560Z,7.45
2022-09-23T21:34:20.920Z,6.82
2022-09-23T21:37:08.365Z,7.22
2022-09-23T21:40:13.409Z,7.15
2022-09-23T21:43:00.307Z,6.95
2022-09-23T21:45:47.424Z,8.52
2022-09-23T21:48:35.545Z,6.90
2022-09-23T21:51:25.008Z,7.10
2022-09-23T21:54:16.149Z,6.25
2022-09-23T21:57:02.754Z,8.25
2022-09-23T21:59:48.477Z,6.57
2022-09-23T22:02:35.554Z,8.30
2022-09-23T22:05:21.970Z,7.22
2022-09-23T22:08:09.114Z,7.47
2022-09-23T22:10:56.098Z,8.73
2022-09-23T22:13:42.541Z,10.20
2022-09-23T22:16:29.664Z,6.37
2022-09-23T22:19:15.668Z,7.40
2022-09-23T22:22:06.886Z,6.10
2022-09-23T22:24:53.211Z,6.37
2022-09-23T22:27:59.550Z,6.70
2022-09-23T22:31:04.077Z,5.90
2022-09-23T22:33:50.583Z,7.22
2022-09-23T22:36:36.971Z,6.18
2022-09-23T22:39:24.351Z,6.82
2022-09-23T22:42:11.155Z,5.22
2022-09-23T22:44:57.629Z,7.15
2022-09-23T22:47:45.551Z,5.90
2022-09-23T22:50:32.237Z,6.85
2022-09-23T22:53:18.816Z,5.60
2022-09-23T22:56:05.039Z,7.03
2022-09-23T22:58:51.370Z,4.75
2022-09-23T23:01:37.816Z,5.32
2022-09-23T23:04:24.203Z,5.37
2022-09-23T23:07:13.356Z,4.12
2022-09-23T23:09:59.560Z,8.18
2022-09-23T23:12:46.941Z,3.50
2022-09-23T23:15:32.856Z,5.95
2022-09-23T23:18:19.176Z,3.80
2022-09-23T23:21:07.186Z,4.07
2022-09-23T23:23:53.635Z,3.05
2022-09-23T23:26:39.472Z,4.65
2022-09-23T23:29:25.787Z,3.72
2022-09-23T23:32:11.895Z,4.93
2022-09-23T23:34:58.093Z,4.68
2022-09-23T23:37:44.463Z,7.57
2022-09-23T23:40:30.879Z,5.20
2022-09-23T23:43:19.020Z,4.40
2022-09-23T23:46:07.491Z,7.72
2022-09-23T23:48:54.466Z,5.40
2022-09-23T23:51:41.215Z,4.22
2022-09-23T23:54:27.579Z,4.28
2022-09-23T23:57:13.846Z,4.62
